createdAt,value
2023-04-09T00:01:58.551Z,45.51
2023-04-09T00:04:27.161Z,45.39
2023-04-09T00:06:55.289Z,45.39
2023-04-09T00:09:23.485Z,45.47
2023-04-09T00:11:51.570Z,45.60
2023-04-09T00:14:19.743Z,45.29
2023-04-09T00:16:47.778Z,45.47
2023-04-09T00:19:17.725Z,45.46
2023-04-09T00:21:45.789Z,45.55
2023-04-09T00:24:14.046Z,45.50
2023-04-09T00:26:42.261Z,45.59
2023-04-09T00:29:10.621Z,45.56
2023-04-09T00:31:38.918Z,45.60
2023-04-09T00:34:07.117Z,45.35
2023-04-09T00:36:36.617Z,45.62
2023-04-09T00:39:04.878Z,45.47
2023-04-09T00:41:33.001Z,45.59
2023-04-09T00:44:01.111Z,45.48
2023-04-09T00:46:29.202Z,45.52
2023-04-09T00:48:57.283Z,45.56
2023-04-09T00:51:25.548Z,45.28
2023-04-09T00:53:56.301Z,45.43
2023-04-09T00:56:27.328Z,45.47
2023-04-09T00:58:55.744Z,45.41
2023-04-09T01:01:24.327Z,45.41
2023-04-09T01:03:52.555Z,45.38
2023-04-09T01:06:28.311Z,45.36
2023-04-09T01:09:04.172Z,45.36
2023-04-09T01:11:39.091Z,45.30
2023-04-09T01:14:15.936Z,45.40
2023-04-09T01:16:46.194Z,45.23
2023-04-09T01:19:31.263Z,45.18
2023-04-09T01:22:01.777Z,45.14
2023-04-09T01:24:46.135Z,45.11
2023-04-09T01:27:16.270Z,45.11
2023-04-09T01:29:48.972Z,45.38
2023-04-09T01:32:20.342Z,45.25
2023-04-09T01:34:49.620Z,45.14
2023-04-09T01:37:19.332Z,45.16
2023-04-09T01:39:48.372Z,45.12
2023-04-09T01:42:17.643Z,45.12
2023-04-09T01:44:47.905Z,45.11
2023-04-09T01:47:16.709Z,45.14
2023-04-09T01:49:46.809Z,44.92
2023-04-09T01:52:15.663Z,45.13
2023-04-09T01:54:44.229Z,45.09
2023-04-09T01:57:12.358Z,44.97
2023-04-09T01:59:40.783Z,44.82
2023-04-09T02:02:18.812Z,45.00
2023-04-09T02:04:50.232Z,44.96
2023-04-09T02:07:28.550Z,45.02
2023-04-09T02:09:58.421Z,44.90
2023-04-09T02:12:26.874Z,44.93
2023-04-09T02:14:55.740Z,44.95
2023-04-09T02:17:26.580Z,45.03
2023-04-09T02:19:54.784Z,44.93
2023-04-09T02:22:23.016Z,44.99
2023-04-09T02:24:51.167Z,45.05
2023-04-09T02:27:19.337Z,44.87
2023-04-09T02:29:47.506Z,44.89
2023-04-09T02:32:16.063Z,45.15
2023-04-09T02:34:45.907Z,44.99
2023-04-09T02:37:13.977Z,44.86
2023-04-09T02:39:42.061Z,44.97
2023-04-09T02:42:10.166Z,45.02
2023-04-09T02:44:38.298Z,45.11
2023-04-09T02:47:06.406Z,45.01
2023-04-09T02:49:34.852Z,45.14
2023-04-09T02:52:05.029Z,45.07
2023-04-09T02:54:33.232Z,44.99
2023-04-09T02:57:01.296Z,44.82
2023-04-09T02:59:29.381Z,45.06
2023-04-09T03:01:57.766Z,44.92
2023-04-09T03:04:25.860Z,44.89
2023-04-09T03:06:53.937Z,45.03
2023-04-09T03:09:24.027Z,45.08
2023-04-09T03:11:52.286Z,45.29
2023-04-09T03:14:20.401Z,45.08
2023-04-09T03:16:48.482Z,44.90
2023-04-09T03:19:16.634Z,45.05
2023-04-09T03:21:44.669Z,44.98
2023-04-09T03:24:12.948Z,45.13
2023-04-09T03:26:42.403Z,45.04
2023-04-09T03:29:10.495Z,45.06
2023-04-09T03:31:38.650Z,45.34
2023-04-09T03:34:06.867Z,45.25
2023-04-09T03:36:34.896Z,45.33
2023-04-09T03:39:03.126Z,45.15
2023-04-09T03:41:31.235Z,45.30
2023-04-09T03:44:00.782Z,45.15
2023-04-09T03:46:28.872Z,45.16
2023-04-09T03:48:57.053Z,45.16
2023-04-09T03:51:25.147Z,45.31
2023-04-09T03:53:53.741Z,45.18
2023-04-09T03:56:22.406Z,45.25
2023-04-09T03:58:50.891Z,45.19
2023-04-09T04:01:21.259Z,45.19
2023-04-09T04:03:49.962Z,45.22
2023-04-09T04:06:18.115Z,45.28
2023-04-09T04:08:46.174Z,45.16
2023-04-09T04:11:14.311Z,45.20
2023-04-09T04:13:42.454Z,45.39
2023-04-09T04:16:11.645Z,45.29
2023-04-09T04:18:41.235Z,45.19
2023-04-09T04:21:14.204Z,45.22
2023-04-09T04:23:42.594Z,45.24
2023-04-09T04:26:11.172Z,45.23
2023-04-09T04:28:39.640Z,45.18
2023-04-09T04:31:09.811Z,45.40
2023-04-09T04:33:38.733Z,45.33
2023-04-09T04:36:10.113Z,45.60
2023-04-09T04:38:38.638Z,45.83
2023-04-09T04:41:07.199Z,45.93
2023-04-09T04:43:35.430Z,46.26
2023-04-09T04:46:03.527Z,46.31
2023-04-09T04:48:32.188Z,46.36
2023-04-09T04:51:02.247Z,46.45
2023-04-09T04:53:31.735Z,46.25
2023-04-09T04:55:59.837Z,46.16
2023-04-09T04:58:27.945Z,46.13
2023-04-09T05:00:56.242Z,46.00
2023-04-09T05:03:27.009Z,45.93
2023-04-09T05:05:55.691Z,45.86
2023-04-09T05:08:23.841Z,45.80
2023-04-09T05:10:56.070Z,45.76
2023-04-09T05:13:24.835Z,45.66
2023-04-09T05:15:52.927Z,45.56
2023-04-09T05:18:21.065Z,45.51
2023-04-09T05:20:49.506Z,45.59
2023-04-09T05:23:17.522Z,45.42
2023-04-09T05:25:45.501Z,45.38
2023-04-09T05:28:16.801Z,45.37
2023-04-09T05:30:47.723Z,45.45
2023-04-09T05:33:16.213Z,45.49
2023-04-09T05:35:44.293Z,45.31
2023-04-09T05:38:13.567Z,45.51
2023-04-09T05:40:42.419Z,45.53
2023-04-09T05:43:10.822Z,45.53
2023-04-09T05:45:40.627Z,45.39
2023-04-09T05:48:08.936Z,45.34
2023-04-09T05:50:51.133Z,45.32
2023-04-09T05:53:22.435Z,45.13
2023-04-09T05:55:50.736Z,45.13
2023-04-09T05:58:19.874Z,45.15
2023-04-09T06:00:51.605Z,45.07
2023-04-09T06:03:20.078Z,45.10
2023-04-09T06:05:48.488Z,45.12
2023-04-09T06:08:16.758Z,44.91
2023-04-09T06:10:44.979Z,44.92
2023-04-09T06:13:13.280Z,45.07
2023-04-09T06:15:41.613Z,45.10
2023-04-09T06:18:11.330Z,45.08
2023-04-09T06:20:39.421Z,44.90
2023-04-09T06:23:07.490Z,45.00
2023-04-09T06:25:36.670Z,45.11
2023-04-09T06:28:05.039Z,44.90
2023-04-09T06:30:33.255Z,45.01
2023-04-09T06:33:01.408Z,45.06
2023-04-09T06:35:31.069Z,44.99
2023-04-09T06:37:59.177Z,45.00
2023-04-09T06:40:27.584Z,44.83
2023-04-09T06:42:58.151Z,44.84
2023-04-09T06:45:26.574Z,44.98
2023-04-09T06:47:54.612Z,44.84
2023-04-09T06:50:22.744Z,44.55
2023-04-09T06:52:53.737Z,44.68
2023-04-09T06:55:22.180Z,44.61
2023-04-09T06:57:50.451Z,44.71
2023-04-09T07:00:19.093Z,44.58
2023-04-09T07:02:47.414Z,45.00
2023-04-09T07:05:15.778Z,44.92
2023-04-09T07:07:43.983Z,45.03
2023-04-09T07:10:14.000Z,45.04
2023-04-09T07:12:42.833Z,44.99
2023-04-09T07:15:11.258Z,45.00
2023-04-09T07:17:39.448Z,45.19
2023-04-09T07:20:08.897Z,45.27
2023-04-09T07:22:37.713Z,45.15
2023-04-09T07:25:07.393Z,45.19
2023-04-09T07:27:36.861Z,45.14
2023-04-09T07:30:05.886Z,45.24
2023-04-09T07:32:34.145Z,45.34
2023-04-09T07:35:02.438Z,45.68
2023-04-09T07:37:30.638Z,45.82
2023-04-09T07:39:59.064Z,45.74
2023-04-09T07:42:27.465Z,45.94
2023-04-09T07:44:57.676Z,45.90
2023-04-09T07:47:25.818Z,45.95
2023-04-09T07:49:53.980Z,46.01
2023-04-09T07:52:22.264Z,45.90
2023-04-09T07:54:50.549Z,45.89
2023-04-09T07:57:18.691Z,46.04
2023-04-09T07:59:47.283Z,45.96
2023-04-09T08:02:17.780Z,46.36
2023-04-09T08:04:46.083Z,46.06
2023-04-09T08:07:14.207Z,45.75
2023-04-09T08:09:42.284Z,45.83
2023-04-09T08:12:11.111Z,45.91
2023-04-09T08:14:43.941Z,46.00
2023-04-09T08:17:12.140Z,45.83
2023-04-09T08:19:42.136Z,45.68
2023-04-09T08:22:10.455Z,45.91
2023-04-09T08:24:40.181Z,46.09
2023-04-09T08:27:08.311Z,46.52
2023-04-09T08:29:36.545Z,46.58
2023-04-09T08:32:05.331Z,46.49
2023-04-09T08:34:35.586Z,46.56
2023-04-09T08:37:05.199Z,46.45
2023-04-09T08:39:34.271Z,46.67
2023-04-09T08:42:02.873Z,46.82
2023-04-09T08:44:31.402Z,46.98
2023-04-09T08:47:01.278Z,47.23
2023-04-09T08:49:29.646Z,47.61
2023-04-09T08:51:57.905Z,47.35
2023-04-09T08:54:27.556Z,47.22
2023-04-09T08:56:56.407Z,47.15
2023-04-09T08:59:30.992Z,47.21
2023-04-09T09:02:09.664Z,47.02
2023-04-09T09:04:48.542Z,46.94
2023-04-09T09:07:17.423Z,46.71
2023-04-09T09:09:54.733Z,46.42
2023-04-09T09:12:38.191Z,46.51
2023-04-09T09:15:25.513Z,46.34
2023-04-09T09:17:56.926Z,46.23
2023-04-09T09:20:26.022Z,46.08
2023-04-09T09:22:56.011Z,46.00
2023-04-09T09:25:26.413Z,45.96
2023-04-09T09:27:55.441Z,46.12
2023-04-09T09:30:24.978Z,45.87
2023-04-09T09:32:54.918Z,45.59
2023-04-09T09:35:23.625Z,45.53
2023-04-09T09:38:04.229Z,45.45
2023-04-09T09:40:33.839Z,45.69
2023-04-09T09:43:02.154Z,45.44
2023-04-09T09:45:30.676Z,45.33
2023-04-09T09:48:01.694Z,45.64
2023-04-09T09:50:32.502Z,45.43
2023-04-09T09:53:05.149Z,45.52
2023-04-09T09:55:38.263Z,45.26
2023-04-09T09:58:12.039Z,45.64
2023-04-09T10:00:41.502Z,45.28
2023-04-09T10:03:15.983Z,45.15
2023-04-09T10:05:45.967Z,45.42
2023-04-09T10:08:14.535Z,45.33
2023-04-09T10:10:44.460Z,44.97
2023-04-09T10:13:21.748Z,45.14
2023-04-09T10:15:50.654Z,44.76
2023-04-09T10:18:19.457Z,44.82
2023-04-09T10:20:52.381Z,44.76
2023-04-09T10:23:30.009Z,44.85
2023-04-09T10:25:59.691Z,44.64
2023-04-09T10:28:27.776Z,44.53
2023-04-09T10:30:57.477Z,44.50
2023-04-09T10:33:28.006Z,44.59
2023-04-09T10:36:00.822Z,44.46
2023-04-09T10:38:35.543Z,44.61
2023-04-09T10:41:17.728Z,44.39
2023-04-09T10:43:48.683Z,44.75
2023-04-09T10:46:32.625Z,44.67
2023-04-09T10:49:12.128Z,44.88
2023-04-09T10:51:45.204Z,45.48
2023-04-09T10:54:45.786Z,45.62
2023-04-09T10:57:20.764Z,45.36
2023-04-09T10:59:51.125Z,45.69
2023-04-09T11:02:50.054Z,45.38
2023-04-09T11:05:27.774Z,45.82
2023-04-09T11:08:04.053Z,45.82
2023-04-09T11:10:33.112Z,45.71
2023-04-09T11:13:03.085Z,45.67
2023-04-09T11:15:32.361Z,45.91
2023-04-09T11:18:00.624Z,45.82
2023-04-09T11:20:30.729Z,45.55
2023-04-09T11:23:00.606Z,46.13
2023-04-09T11:25:30.977Z,45.50
2023-04-09T11:27:59.616Z,45.70
2023-04-09T11:39:40.873Z,45.66
2023-04-09T11:42:08.976Z,45.73
2023-04-09T11:44:36.984Z,45.54
2023-04-09T11:47:05.262Z,45.19
2023-04-09T11:49:33.908Z,45.30
2023-04-09T11:52:04.063Z,45.51
2023-04-09T11:54:33.234Z,45.54
2023-04-09T11:57:05.046Z,45.74
2023-04-09T11:59:33.308Z,45.57
2023-04-09T12:02:01.916Z,45.62
2023-04-09T12:04:30.167Z,45.43
2023-04-09T12:06:58.878Z,45.16
2023-04-09T12:09:27.565Z,45.57
2023-04-09T12:11:56.129Z,45.45
2023-04-09T12:14:25.705Z,45.31
2023-04-09T12:16:53.934Z,44.95
2023-04-09T12:19:28.031Z,44.97
2023-04-09T12:21:58.434Z,45.19
2023-04-09T12:24:28.121Z,45.41
2023-04-09T12:26:57.243Z,45.56
2023-04-09T12:29:26.952Z,45.84
2023-04-09T12:31:55.041Z,46.06
2023-04-09T12:34:23.131Z,46.30
2023-04-09T12:36:51.257Z,46.34
2023-04-09T12:39:21.016Z,45.88
2023-04-09T12:41:50.469Z,45.69
2023-04-09T12:44:18.577Z,45.23
2023-04-09T12:46:48.457Z,45.14
2023-04-09T12:49:17.139Z,44.93
2023-04-09T12:51:45.835Z,44.91
2023-04-09T12:54:14.040Z,45.14
2023-04-09T12:56:42.141Z,45.17
2023-04-09T12:59:10.891Z,45.37
2023-04-09T13:01:42.028Z,45.29
2023-04-09T13:04:13.180Z,45.02
2023-04-09T13:06:41.619Z,45.25
2023-04-09T13:09:12.487Z,44.87
2023-04-09T13:11:41.245Z,45.03
2023-04-09T13:14:13.532Z,45.24
2023-04-09T13:16:41.920Z,45.44
2023-04-09T13:19:12.355Z,44.96
2023-04-09T13:21:40.464Z,45.17
2023-04-09T13:24:08.722Z,45.33
2023-04-09T13:26:36.947Z,45.25
2023-04-09T13:29:05.306Z,45.04
2023-04-09T13:31:33.446Z,45.08
2023-04-09T13:34:02.858Z,45.01
2023-04-09T13:36:32.572Z,44.68
2023-04-09T13:39:04.354Z,44.79
2023-04-09T13:41:33.421Z,44.88
2023-04-09T13:44:02.229Z,44.75
2023-04-09T13:46:30.425Z,44.18
2023-04-09T13:48:58.550Z,44.02
2023-04-09T13:51:29.630Z,43.90
2023-04-09T13:53:59.086Z,43.81
2023-04-09T13:56:28.603Z,44.29
2023-04-09T13:58:56.689Z,44.21
2023-04-09T14:01:27.438Z,44.49
2023-04-09T14:03:56.163Z,44.65
2023-04-09T14:06:24.686Z,44.71
2023-04-09T14:08:53.136Z,44.57
2023-04-09T14:11:22.874Z,44.59
2023-04-09T14:13:51.255Z,44.51
2023-04-09T14:16:20.437Z,44.46
2023-04-09T14:18:48.526Z,44.33
2023-04-09T14:21:18.127Z,44.50
2023-04-09T14:23:46.848Z,44.24
2023-04-09T14:26:16.126Z,44.46
2023-04-09T14:28:47.200Z,44.12
2023-04-09T14:31:15.513Z,44.49
2023-04-09T14:33:43.643Z,44.46
2023-04-09T14:36:11.790Z,44.12
2023-04-09T14:38:40.365Z,44.02
2023-04-09T14:41:08.518Z,44.09
2023-04-09T14:43:36.639Z,44.15
2023-04-09T14:46:11.651Z,44.47
2023-04-09T14:48:40.553Z,44.49
2023-04-09T14:51:10.833Z,44.04
2023-04-09T14:53:39.281Z,43.65
2023-04-09T14:56:08.197Z,43.44
2023-04-09T14:58:37.340Z,43.09
2023-04-09T15:01:07.270Z,43.28
2023-04-09T15:03:35.765Z,43.04
2023-04-09T15:06:04.044Z,43.16
2023-04-09T15:08:32.121Z,43.05
2023-04-09T15:11:00.309Z,43.46
2023-04-09T15:13:28.422Z,43.26
2023-04-09T15:15:56.729Z,43.44
2023-04-09T15:18:26.274Z,43.23
2023-04-09T15:20:54.765Z,43.40
2023-04-09T15:23:22.887Z,43.42
2023-04-09T15:25:51.661Z,43.62
2023-04-09T15:28:19.883Z,43.45
2023-04-09T15:30:48.130Z,43.73
2023-04-09T15:33:16.424Z,43.36
2023-04-09T15:35:46.010Z,43.74
2023-04-09T15:38:14.503Z,43.56
2023-04-09T15:40:42.641Z,43.28
2023-04-09T15:43:10.627Z,43.66
2023-04-09T15:45:38.758Z,43.36
2023-04-09T15:48:07.293Z,43.75
2023-04-09T15:50:39.690Z,43.52
2023-04-09T15:53:09.257Z,43.72
2023-04-09T15:55:37.292Z,43.50
2023-04-09T15:58:05.402Z,43.89
2023-04-09T16:00:33.645Z,43.49
2023-04-09T16:03:01.772Z,43.55
2023-04-09T16:05:29.934Z,43.87
2023-04-09T16:07:59.766Z,43.73
2023-04-09T16:10:29.534Z,43.67
2023-04-09T16:12:57.608Z,43.75
2023-04-09T16:15:25.701Z,43.78
2023-04-09T16:17:53.729Z,43.43
2023-04-09T16:20:22.322Z,43.53
2023-04-09T16:22:50.628Z,43.33
2023-04-09T16:25:18.841Z,43.49
2023-04-09T16:27:48.415Z,43.74
2023-04-09T16:30:16.610Z,43.81
2023-04-09T16:32:44.870Z,43.59
2023-04-09T16:35:13.268Z,43.62
2023-04-09T16:37:41.373Z,43.51
2023-04-09T16:40:10.529Z,43.49
2023-04-09T16:42:39.297Z,43.45
2023-04-09T16:45:09.784Z,43.46
2023-04-09T16:47:37.936Z,43.78
2023-04-09T16:50:10.513Z,43.70
2023-04-09T16:52:39.575Z,43.56
2023-04-09T16:55:09.094Z,43.65
2023-04-09T16:57:38.131Z,43.54
2023-04-09T17:00:09.448Z,43.68
2023-04-09T17:02:39.450Z,43.53
2023-04-09T17:05:09.019Z,43.62
2023-04-09T17:07:37.165Z,43.31
2023-04-09T17:10:06.486Z,43.77
2023-04-09T17:12:35.031Z,44.17
2023-04-09T17:15:03.113Z,44.34
2023-04-09T17:17:33.358Z,44.00
2023-04-09T17:20:01.988Z,43.71
2023-04-09T17:22:30.278Z,43.61
2023-04-09T17:24:58.322Z,43.62
2023-04-09T17:27:27.560Z,43.65
2023-04-09T17:29:55.810Z,43.32
2023-04-09T17:32:24.131Z,43.70
2023-04-09T17:34:53.652Z,43.96
2023-04-09T17:37:21.842Z,43.66
2023-04-09T17:39:50.158Z,43.66
2023-04-09T17:42:19.577Z,43.83
2023-04-09T17:44:47.676Z,43.82
2023-04-09T17:47:15.952Z,43.89
2023-04-09T17:49:44.454Z,43.89
2023-04-09T17:52:14.790Z,43.92
2023-04-09T17:54:45.525Z,44.01
2023-04-09T17:57:13.818Z,44.03
2023-04-09T17:59:41.991Z,43.91
2023-04-09T18:02:10.879Z,43.81
2023-04-09T18:04:39.762Z,43.96
2023-04-09T18:07:07.920Z,45.00
2023-04-09T18:09:39.142Z,45.40
2023-04-09T18:12:07.494Z,46.27
2023-04-09T18:14:35.602Z,46.66
2023-04-09T18:17:03.801Z,46.38
2023-04-09T18:19:32.165Z,46.17
2023-04-09T18:22:00.477Z,46.09
2023-04-09T18:24:29.275Z,45.98
2023-04-09T18:27:02.229Z,45.93
2023-04-09T18:29:30.588Z,45.57
2023-04-09T18:31:59.025Z,45.62
2023-04-09T18:34:27.497Z,45.37
2023-04-09T18:36:56.152Z,45.36
2023-04-09T18:39:24.450Z,44.90
2023-04-09T18:41:52.644Z,44.69
2023-04-09T18:44:22.219Z,44.50
2023-04-09T18:46:50.491Z,44.62
2023-04-09T18:49:18.538Z,44.29
2023-04-09T18:51:47.248Z,44.08
2023-04-09T18:54:15.591Z,44.21
2023-04-09T18:56:45.924Z,43.75
2023-04-09T18:59:14.641Z,44.00
2023-04-09T19:01:44.634Z,43.80
2023-04-09T19:04:13.214Z,43.84
2023-04-09T19:06:41.465Z,43.55
2023-04-09T19:09:10.010Z,43.48
2023-04-09T19:11:41.192Z,43.58
2023-04-09T19:14:09.674Z,43.48
2023-04-09T19:16:38.496Z,43.47
2023-04-09T19:19:08.603Z,43.24
2023-04-09T19:21:37.000Z,43.31
2023-04-09T19:24:06.213Z,43.37
2023-04-09T19:26:34.549Z,43.17
2023-04-09T19:29:03.771Z,43.34
2023-04-09T19:31:34.629Z,42.89
2023-04-09T19:34:02.909Z,42.87
2023-04-09T19:36:33.981Z,42.81
2023-04-09T19:39:02.101Z,43.09
2023-04-09T19:41:30.902Z,42.86
2023-04-09T19:44:01.242Z,43.03
2023-04-09T19:46:30.109Z,42.89
2023-04-09T19:48:58.776Z,43.03
2023-04-09T19:51:27.489Z,42.99
2023-04-09T19:53:57.606Z,42.96
2023-04-09T19:56:26.114Z,43.24
2023-04-09T19:58:54.776Z,43.07
2023-04-09T20:01:23.354Z,43.13
2023-04-09T20:03:51.581Z,43.15
2023-04-09T20:06:19.857Z,42.89
2023-04-09T20:08:49.446Z,43.19
2023-04-09T20:11:20.465Z,43.06
2023-04-09T20:13:48.983Z,42.80
2023-04-09T20:16:17.275Z,42.75
2023-04-09T20:18:45.485Z,43.04
2023-04-09T20:21:14.637Z,42.81
2023-04-09T20:23:45.195Z,42.89
2023-04-09T20:26:13.674Z,42.75
2023-04-09T20:28:44.104Z,42.98
2023-04-09T20:31:12.293Z,43.07
2023-04-09T20:33:40.481Z,42.82
2023-04-09T20:36:16.746Z,43.08
2023-04-09T20:38:45.121Z,43.11
2023-04-09T20:41:13.461Z,42.92
2023-04-09T20:43:43.125Z,42.77
2023-04-09T20:46:12.034Z,42.74
2023-04-09T20:48:41.072Z,42.71
2023-04-09T20:51:13.022Z,42.92
2023-04-09T20:53:41.203Z,42.54
2023-04-09T20:56:09.500Z,42.69
2023-04-09T20:58:38.963Z,42.63
2023-04-09T21:01:10.532Z,42.46
2023-04-09T21:03:40.098Z,42.59
2023-04-09T21:06:11.781Z,42.58
2023-04-09T21:08:42.866Z,42.09
2023-04-09T21:11:11.235Z,42.20
2023-04-09T21:13:53.202Z,42.47
2023-04-09T21:16:26.083Z,42.12
2023-04-09T21:18:54.673Z,42.27
2023-04-09T21:21:23.406Z,42.14
2023-04-09T21:23:51.596Z,42.29
2023-04-09T21:26:19.698Z,42.09
2023-04-09T21:28:50.526Z,42.00
2023-04-09T21:31:19.355Z,42.05
2023-04-09T21:33:48.930Z,42.26
2023-04-09T21:36:17.204Z,41.96
2023-04-09T21:38:45.699Z,42.26
2023-04-09T21:41:14.177Z,42.38
2023-04-09T21:43:42.485Z,42.05
2023-04-09T21:46:10.766Z,42.44
2023-04-09T21:48:40.974Z,42.59
2023-04-09T21:51:11.932Z,42.36
2023-04-09T21:53:40.107Z,42.30
2023-04-09T21:56:08.914Z,42.55
2023-04-09T21:58:37.474Z,42.40
2023-04-09T22:01:13.058Z,42.16
2023-04-09T22:03:44.238Z,42.13
2023-04-09T22:06:13.772Z,41.83
2023-04-09T22:08:53.133Z,42.10
2023-04-09T22:11:26.114Z,41.77
2023-04-09T22:13:54.468Z,41.77
2023-04-09T22:16:22.657Z,41.94
2023-04-09T22:18:51.475Z,42.02
2023-04-09T22:21:21.615Z,41.74
2023-04-09T22:23:49.941Z,41.98
2023-04-09T22:26:18.145Z,41.78
2023-04-09T22:28:46.598Z,42.01
2023-04-09T22:31:14.779Z,41.85
2023-04-09T22:33:42.929Z,41.71
2023-04-09T22:36:11.081Z,42.18
2023-04-09T22:38:40.674Z,41.85
2023-04-09T22:41:08.775Z,42.18
2023-04-09T22:43:37.191Z,41.78
2023-04-09T22:46:06.079Z,41.88
2023-04-09T22:48:40.800Z,41.84
2023-04-09T22:51:15.371Z,42.08
2023-04-09T22:53:46.011Z,42.00
2023-04-09T22:56:14.852Z,42.10
2023-04-09T22:58:43.021Z,41.98
2023-04-09T23:01:11.252Z,41.86
2023-04-09T23:03:39.431Z,41.93
2023-04-09T23:06:08.160Z,41.88
2023-04-09T23:08:37.808Z,42.12
2023-04-09T23:11:08.731Z,41.86
2023-04-09T23:13:36.841Z,41.99
2023-04-09T23:16:06.312Z,42.21
2023-04-09T23:18:35.795Z,41.91
2023-04-09T23:21:06.061Z,41.80
2023-04-09T23:23:34.364Z,42.11
2023-04-09T23:26:02.525Z,41.79
2023-04-09T23:28:32.184Z,42.10
2023-04-09T23:31:00.537Z,41.92
2023-04-09T23:33:28.716Z,41.93
2023-04-09T23:35:57.165Z,41.86
2023-04-09T23:38:25.522Z,41.94
2023-04-09T23:40:53.651Z,41.76
2023-04-09T23:43:21.772Z,41.73
2023-04-09T23:45:51.326Z,42.00
2023-04-09T23:48:19.462Z,42.12
2023-04-09T23:50:47.810Z,41.99
2023-04-09T23:53:16.157Z,41.88
2023-04-09T23:55:45.354Z,41.83
2023-04-09T23:58:13.917Z,41.83
